Time;durP1;ratioP1;P1;durP2;ratioP2;P2;SDS_P1;SDS_P2;PMS_P1;PMS_P2;Temp;Humidity;BMP_temperature;BMP_pressure;BME280_temperature;BME280_humidity;BME280_pressure;Samples;Min_cycle;Max_cycle;Signal;HPM_P1;HPM_P2
2022/10/22 00:01:13;;;;;;;;;;;17.00;99.90;;;;;;5114091;28;19919;-23
2022/10/22 00:03:38;;;;;;;;;;;17.00;99.90;;;;;;5113613;28;20296;-23
2022/10/22 00:06:04;;;;;;;;;;;17.00;99.90;;;;;;5113492;28;19915;-23
2022/10/22 00:08:29;;;;;;;;;;;17.00;99.90;;;;;;5113812;28;19912;-23
2022/10/22 00:10:55;;;;;;;;;;;17.00;99.90;;;;;;5114298;28;19908;-23
2022/10/22 00:13:21;;;;;;;;;;;17.00;99.90;;;;;;5112926;28;19959;-23
2022/10/22 00:15:47;;;;;;;;;;;17.00;99.90;;;;;;5113589;28;19922;-23
2022/10/22 00:18:13;;;;;;;;;;;17.00;99.90;;;;;;5113519;28;19950;-23
2022/10/22 00:20:38;;;;;;;;;;;17.00;99.90;;;;;;5114044;28;19958;-23
2022/10/22 00:23:04;;;;;;;;;;;17.00;99.90;;;;;;5113740;28;19961;-23
2022/10/22 00:25:30;;;;;;;;;;;17.00;99.90;;;;;;5113638;28;19911;-23
2022/10/22 00:27:55;;;;;;;;;;;17.00;99.90;;;;;;5113532;28;19908;-23
2022/10/22 00:30:21;;;;;;;;;;;17.00;99.90;;;;;;5113221;28;19922;-23
2022/10/22 00:32:46;;;;;;;;;;;17.00;99.90;;;;;;5113140;28;20330;-23
2022/10/22 00:35:12;;;;;;;;;;;16.90;99.90;;;;;;5113262;28;19919;-23
2022/10/22 00:37:37;;;;;;;;;;;16.90;99.90;;;;;;5113176;28;19911;-23
2022/10/22 00:40:03;;;;;;;;;;;16.90;99.90;;;;;;5113371;28;19915;-23
2022/10/22 00:42:29;;;;;;;;;;;16.90;99.90;;;;;;5113345;28;19911;-23
2022/10/22 00:45:04;;;;;;;;;;;17.00;99.90;;;;;;5112910;28;20196;-23
2022/10/22 00:47:31;;;;;;;;;;;17.00;99.90;;;;;;5113155;28;20003;-23
2022/10/22 00:49:58;;;;;;;;;;;17.00;99.90;;;;;;5113110;28;19911;-23
2022/10/22 00:52:24;;;;;;;;;;;16.90;99.90;;;;;;5112772;28;19960;-23
2022/10/22 00:54:49;;;;;;;;;;;16.90;99.90;;;;;;5112731;28;19986;-23
2022/10/22 00:57:16;;;;;;;;;;;16.90;99.90;;;;;;5112929;28;20357;-23
2022/10/22 00:59:42;;;;;;;;;;;16.90;99.90;;;;;;5112750;28;19916;-23
2022/10/22 01:02:07;;;;;;;;;;;16.90;99.90;;;;;;5112953;28;19914;-23
2022/10/22 01:04:33;;;;;;;;;;;16.90;99.90;;;;;;5114983;28;19925;-23
2022/10/22 01:06:58;;;;;;;;;;;17.00;99.90;;;;;;5116364;28;20373;-23
2022/10/22 01:09:38;;;;;;;;;;;16.90;99.90;;;;;;5112869;28;20002;-22
2022/10/22 01:12:17;;;;;;;;;;;16.90;99.90;;;;;;5112412;28;19941;-23
2022/10/22 01:14:51;;;;;;;;;;;17.00;99.90;;;;;;5112436;28;19916;-23
2022/10/22 01:17:21;;;;;;;;;;;17.00;99.90;;;;;;5112246;28;19912;-23
2022/10/22 01:19:59;;;;;;;;;;;16.90;99.90;;;;;;5074212;28;19943;-23
2022/10/22 01:22:30;;;;;;;;;;;16.90;99.90;;;;;;5102706;28;19911;-24
2022/10/22 01:24:56;;;;;;;;;;;16.90;99.90;;;;;;5112042;28;20030;-23
2022/10/22 01:27:40;;;;;;;;;;;16.90;99.90;;;;;;5111719;28;20002;-23
2022/10/22 01:30:07;;;;;;;;;;;16.90;99.90;;;;;;5133421;22;19924;-25
2022/10/22 01:32:45;;;;;;;;;;;16.90;99.90;;;;;;5112451;28;20108;-26
2022/10/22 01:35:12;;;;;;;;;;;17.00;99.90;;;;;;5112337;28;20384;-25
2022/10/22 01:37:44;;;;;;;;;;;17.00;99.90;;;;;;5112772;28;19915;-25
2022/10/22 01:40:10;;;;;;;;;;;16.90;99.90;;;;;;5126178;27;20280;-26
2022/10/22 01:42:36;;;;;;;;;;;17.00;99.90;;;;;;5132545;27;20375;-25
2022/10/22 01:45:04;;;;;;;;;;;16.90;99.90;;;;;;5133182;27;20002;-25
2022/10/22 01:48:05;;;;;;;;;;;16.90;99.90;;;;;;5132735;27;19911;-25
2022/10/22 01:50:45;;;;;;;;;;;16.90;99.90;;;;;;5069068;28;20062;-25
2022/10/22 01:53:13;;;;;;;;;;;16.90;99.90;;;;;;5113349;27;19915;-25
2022/10/22 01:55:57;;;;;;;;;;;16.90;99.90;;;;;;5132966;27;19938;-25
2022/10/22 01:58:41;;;;;;;;;;;16.90;99.90;;;;;;5112620;28;19911;-25
2022/10/22 02:01:16;;;;;;;;;;;16.90;99.90;;;;;;5129741;27;20295;-26
2022/10/22 02:03:49;;;;;;;;;;;16.90;99.90;;;;;;5132580;27;19911;-25
2022/10/22 02:06:19;;;;;;;;;;;16.90;99.90;;;;;;5132455;27;19919;-25
2022/10/22 02:08:46;;;;;;;;;;;16.90;99.90;;;;;;5132797;27;19916;-25
2022/10/22 02:11:12;;;;;;;;;;;16.90;99.90;;;;;;5132489;27;19912;-25
2022/10/22 02:13:46;;;;;;;;;;;16.90;99.90;;;;;;5132327;27;19919;-25
2022/10/22 02:16:15;;;;;;;;;;;16.90;99.90;;;;;;5132877;28;19907;-25
2022/10/22 02:18:42;;;;;;;;;;;16.90;99.90;;;;;;5131220;28;19922;-25
2022/10/22 02:21:08;;;;;;;;;;;16.90;99.90;;;;;;5132394;28;20288;-25
2022/10/22 02:23:34;;;;;;;;;;;16.80;99.90;;;;;;5132428;28;19911;-25
2022/10/22 02:26:02;;;;;;;;;;;16.90;99.90;;;;;;5132992;27;19911;-25
2022/10/22 02:28:27;;;;;;;;;;;16.90;99.90;;;;;;5133423;27;19918;-25
2022/10/22 02:30:59;;;;;;;;;;;16.90;99.90;;;;;;5136486;27;19916;-25
2022/10/22 02:33:25;;;;;;;;;;;16.90;99.90;;;;;;5136300;27;19921;-25
2022/10/22 02:35:52;;;;;;;;;;;16.90;99.90;;;;;;5136706;27;20391;-25
2022/10/22 02:38:18;;;;;;;;;;;16.90;99.90;;;;;;5136332;27;19968;-25
2022/10/22 02:40:44;;;;;;;;;;;16.90;99.90;;;;;;5136560;27;19938;-25
2022/10/22 02:43:09;;;;;;;;;;;16.80;99.90;;;;;;5136014;27;20370;-25
2022/10/22 02:45:35;;;;;;;;;;;16.80;99.90;;;;;;5136284;27;19951;-26
2022/10/22 02:48:01;;;;;;;;;;;16.80;99.90;;;;;;5136154;27;19907;-25
2022/10/22 02:50:27;;;;;;;;;;;16.80;99.90;;;;;;5136159;27;19911;-25
2022/10/22 02:52:52;;;;;;;;;;;16.80;99.90;;;;;;5135857;27;19919;-25
2022/10/22 02:55:18;;;;;;;;;;;16.80;99.90;;;;;;5136339;27;19907;-25
2022/10/22 02:57:43;;;;;;;;;;;16.90;99.90;;;;;;5136140;27;19957;-26
2022/10/22 03:00:09;;;;;;;;;;;16.90;99.90;;;;;;5135918;27;20379;-25
2022/10/22 03:02:35;;;;;;;;;;;16.90;99.90;;;;;;5135701;27;19915;-25
2022/10/22 03:05:01;;;;;;;;;;;16.90;99.90;;;;;;5136524;27;19967;-25
2022/10/22 03:07:26;;;;;;;;;;;16.90;99.90;;;;;;5135923;27;19911;-25
2022/10/22 03:09:52;;;;;;;;;;;16.80;99.90;;;;;;5135714;27;19960;-25
2022/10/22 03:12:17;;;;;;;;;;;16.80;99.90;;;;;;5136080;27;19911;-25
2022/10/22 03:14:43;;;;;;;;;;;16.80;99.90;;;;;;5135626;27;20381;-25
2022/10/22 03:17:11;;;;;;;;;;;16.80;99.90;;;;;;5135784;27;19915;-25
2022/10/22 03:19:37;;;;;;;;;;;16.90;99.90;;;;;;5135730;27;19907;-25
2022/10/22 03:22:05;;;;;;;;;;;16.80;99.90;;;;;;5136124;27;19915;-25
2022/10/22 03:24:34;;;;;;;;;;;16.80;99.90;;;;;;5135361;27;19964;-25
2022/10/22 03:26:59;;;;;;;;;;;16.80;99.90;;;;;;5135329;27;19916;-25
2022/10/22 03:29:26;;;;;;;;;;;16.80;99.90;;;;;;5135102;27;19919;-25
2022/10/22 03:31:52;;;;;;;;;;;16.80;99.90;;;;;;5135298;27;19916;-25
2022/10/22 03:34:17;;;;;;;;;;;16.80;99.90;;;;;;5135258;27;19912;-25
2022/10/22 03:36:43;;;;;;;;;;;16.80;99.90;;;;;;5135153;27;19918;-25
2022/10/22 03:39:11;;;;;;;;;;;16.80;99.90;;;;;;5134041;27;20344;-25
2022/10/22 03:41:36;;;;;;;;;;;16.80;99.90;;;;;;5133450;27;19918;-25
2022/10/22 03:44:03;;;;;;;;;;;16.80;99.90;;;;;;5135639;27;19911;-25
2022/10/22 03:46:29;;;;;;;;;;;16.80;99.90;;;;;;5135293;27;20423;-25
2022/10/22 03:48:54;;;;;;;;;;;16.80;99.90;;;;;;5134939;27;19946;-25
2022/10/22 03:51:19;;;;;;;;;;;16.80;99.90;;;;;;5135110;27;20284;-25
2022/10/22 03:53:45;;;;;;;;;;;16.70;99.90;;;;;;5134999;27;19969;-25
2022/10/22 03:56:11;;;;;;;;;;;16.80;99.90;;;;;;5135029;27;19919;-26
2022/10/22 03:58:37;;;;;;;;;;;16.70;99.90;;;;;;5135087;27;20018;-25
2022/10/22 04:01:07;;;;;;;;;;;16.80;99.90;;;;;;5135009;27;19915;-25
2022/10/22 04:03:33;;;;;;;;;;;16.80;99.90;;;;;;5134739;27;19912;-25
2022/10/22 04:06:09;;;;;;;;;;;16.70;99.90;;;;;;5134510;27;19911;-25
2022/10/22 04:08:34;;;;;;;;;;;16.70;99.90;;;;;;5134874;27;19908;-25
2022/10/22 04:11:00;;;;;;;;;;;16.70;99.90;;;;;;5134536;27;19918;-25
2022/10/22 04:13:26;;;;;;;;;;;16.80;99.90;;;;;;5133717;27;19915;-26
2022/10/22 04:15:51;;;;;;;;;;;16.70;99.90;;;;;;5134572;27;20327;-25
2022/10/22 04:18:17;;;;;;;;;;;16.70;99.90;;;;;;5134804;27;19912;-25
2022/10/22 04:20:43;;;;;;;;;;;16.70;99.90;;;;;;5134430;27;19911;-25
2022/10/22 04:23:08;;;;;;;;;;;16.70;99.90;;;;;;5133993;27;19956;-25
2022/10/22 04:25:34;;;;;;;;;;;16.70;99.90;;;;;;5134608;27;19998;-25
2022/10/22 04:27:59;;;;;;;;;;;16.70;99.90;;;;;;5133053;27;19912;-25
2022/10/22 04:30:25;;;;;;;;;;;16.70;99.90;;;;;;5134105;27;20380;-25
2022/10/22 04:32:51;;;;;;;;;;;16.70;99.90;;;;;;5134198;27;20022;-25
2022/10/22 04:35:16;;;;;;;;;;;16.70;99.90;;;;;;5133630;27;19990;-25
2022/10/22 04:37:42;;;;;;;;;;;16.70;99.90;;;;;;5134059;27;19911;-25
2022/10/22 04:40:08;;;;;;;;;;;16.70;99.90;;;;;;5134290;27;19911;-25
2022/10/22 04:42:33;;;;;;;;;;;16.70;99.90;;;;;;5133130;27;20323;-25
2022/10/22 04:44:59;;;;;;;;;;;16.70;99.90;;;;;;5133128;27;20265;-25
2022/10/22 04:47:24;;;;;;;;;;;16.70;99.90;;;;;;5134029;27;19965;-25
2022/10/22 04:49:50;;;;;;;;;;;16.70;99.90;;;;;;5134135;27;19959;-25
2022/10/22 04:52:15;;;;;;;;;;;16.70;99.90;;;;;;5132170;27;20790;-25
2022/10/22 04:54:41;;;;;;;;;;;16.70;99.90;;;;;;5133710;27;19919;-25
2022/10/22 04:57:06;;;;;;;;;;;16.70;99.90;;;;;;5133683;27;19912;-25
2022/10/22 04:59:32;;;;;;;;;;;16.70;99.90;;;;;;5133572;27;19964;-25
2022/10/22 05:01:57;;;;;;;;;;;16.60;99.90;;;;;;5133699;27;19918;-26
2022/10/22 05:04:23;;;;;;;;;;;16.70;99.90;;;;;;5133873;27;19965;-25
2022/10/22 05:06:48;;;;;;;;;;;16.60;99.90;;;;;;5133493;27;19911;-25
2022/10/22 05:09:15;;;;;;;;;;;16.60;99.90;;;;;;5133310;27;19915;-25
2022/10/22 05:11:44;;;;;;;;;;;16.70;99.90;;;;;;5134081;27;19911;-26
2022/10/22 05:14:10;;;;;;;;;;;16.60;99.90;;;;;;5133056;27;19920;-25
2022/10/22 05:16:36;;;;;;;;;;;16.60;99.90;;;;;;5132529;27;19925;-25
2022/10/22 05:19:02;;;;;;;;;;;16.60;99.90;;;;;;5133182;27;19963;-25
2022/10/22 05:21:28;;;;;;;;;;;16.70;99.90;;;;;;5133508;27;19912;-25
2022/10/22 05:23:54;;;;;;;;;;;16.60;99.90;;;;;;5132935;27;19946;-25
2022/10/22 05:26:21;;;;;;;;;;;16.70;99.90;;;;;;5133024;27;20359;-25
2022/10/22 05:28:47;;;;;;;;;;;16.60;99.90;;;;;;5133113;27;19998;-26
2022/10/22 05:31:13;;;;;;;;;;;16.60;99.90;;;;;;5133065;27;19921;-25
2022/10/22 05:33:39;;;;;;;;;;;16.60;99.90;;;;;;5132569;27;19967;-25
2022/10/22 05:36:06;;;;;;;;;;;16.60;99.90;;;;;;5132990;27;19908;-25
2022/10/22 05:38:32;;;;;;;;;;;16.60;99.90;;;;;;5133190;27;19912;-25
2022/10/22 05:41:02;;;;;;;;;;;16.60;99.90;;;;;;5132803;27;20395;-26
2022/10/22 05:43:28;;;;;;;;;;;16.60;99.90;;;;;;5132566;27;19918;-25
2022/10/22 05:45:53;;;;;;;;;;;16.60;99.90;;;;;;5132630;27;19912;-26
2022/10/22 05:48:19;;;;;;;;;;;16.60;99.90;;;;;;5132227;27;19919;-25
2022/10/22 05:50:49;;;;;;;;;;;16.60;99.90;;;;;;5132086;27;20344;-26
2022/10/22 05:53:16;;;;;;;;;;;16.60;99.90;;;;;;5132266;27;19945;-25
2022/10/22 05:55:41;;;;;;;;;;;16.60;99.90;;;;;;5132738;27;19915;-25
2022/10/22 05:58:07;;;;;;;;;;;16.60;99.90;;;;;;5132506;27;19919;-25
2022/10/22 06:00:33;;;;;;;;;;;16.60;99.90;;;;;;5132503;27;19915;-25
2022/10/22 06:02:59;;;;;;;;;;;16.60;99.90;;;;;;5131389;27;19908;-25
2022/10/22 06:05:24;;;;;;;;;;;16.60;99.90;;;;;;5131162;27;20014;-25
2022/10/22 06:07:50;;;;;;;;;;;16.60;99.90;;;;;;5132806;27;19929;-25
2022/10/22 06:10:18;;;;;;;;;;;16.60;99.90;;;;;;5132277;27;19912;-25
2022/10/22 06:12:45;;;;;;;;;;;16.60;99.90;;;;;;5131120;27;19958;-25
2022/10/22 06:15:11;;;;;;;;;;;16.60;99.90;;;;;;5133274;27;20380;-25
2022/10/22 06:17:36;;;;;;;;;;;16.60;99.90;;;;;;5132365;27;19987;-25
2022/10/22 06:20:02;;;;;;;;;;;16.60;99.90;;;;;;5132530;28;19996;-25
2022/10/22 06:22:27;;;;;;;;;;;16.60;99.90;;;;;;5132101;28;19956;-25
2022/10/22 06:24:53;;;;;;;;;;;16.60;99.90;;;;;;5132463;28;20399;-25
2022/10/22 06:27:18;;;;;;;;;;;16.60;99.90;;;;;;5132300;28;19922;-25
2022/10/22 06:29:44;;;;;;;;;;;16.60;99.90;;;;;;5132107;28;19926;-25
2022/10/22 06:32:09;;;;;;;;;;;16.60;99.90;;;;;;5132507;28;19918;-25
2022/10/22 06:34:35;;;;;;;;;;;16.60;99.90;;;;;;5132084;28;20310;-25
2022/10/22 06:37:00;;;;;;;;;;;16.60;99.90;;;;;;5132204;28;19912;-25
2022/10/22 06:39:26;;;;;;;;;;;16.60;99.90;;;;;;5132248;28;20382;-25
2022/10/22 06:41:51;;;;;;;;;;;16.60;99.90;;;;;;5132263;28;19956;-25
2022/10/22 06:44:18;;;;;;;;;;;16.50;99.90;;;;;;5131810;28;20376;-25
2022/10/22 06:46:43;;;;;;;;;;;16.60;99.90;;;;;;5132176;28;19990;-25
2022/10/22 06:49:11;;;;;;;;;;;16.50;99.90;;;;;;5131636;28;20010;-26
2022/10/22 06:51:36;;;;;;;;;;;16.50;99.90;;;;;;5131381;28;19968;-26
2022/10/22 06:54:02;;;;;;;;;;;16.50;99.90;;;;;;5131978;28;19923;-26
2022/10/22 06:56:28;;;;;;;;;;;16.50;99.90;;;;;;5131922;28;19917;-25
2022/10/22 06:58:54;;;;;;;;;;;16.50;99.90;;;;;;5132104;28;19907;-25
2022/10/22 07:01:21;;;;;;;;;;;16.50;99.90;;;;;;5131638;28;20010;-25
2022/10/22 07:03:48;;;;;;;;;;;16.50;99.90;;;;;;5131720;27;19964;-25
2022/10/22 07:06:14;;;;;;;;;;;16.50;99.90;;;;;;5131974;28;19946;-25
2022/10/22 07:08:40;;;;;;;;;;;16.50;99.90;;;;;;5131910;28;19935;-26
2022/10/22 07:11:07;;;;;;;;;;;16.50;99.90;;;;;;5131856;27;20002;-25
2022/10/22 07:13:32;;;;;;;;;;;16.50;99.90;;;;;;5131772;27;20390;-25
2022/10/22 07:15:58;;;;;;;;;;;16.50;99.90;;;;;;5134905;27;19911;-25
2022/10/22 07:18:23;;;;;;;;;;;16.50;99.90;;;;;;5135738;27;19911;-25
2022/10/22 07:20:49;;;;;;;;;;;16.50;99.90;;;;;;5114901;28;19915;-25
2022/10/22 07:23:14;;;;;;;;;;;16.50;99.90;;;;;;5130260;27;19922;-25
2022/10/22 07:25:40;;;;;;;;;;;16.50;99.90;;;;;;5135375;27;20006;-25
2022/10/22 07:28:06;;;;;;;;;;;16.50;99.90;;;;;;5135639;27;19937;-25
2022/10/22 07:30:31;;;;;;;;;;;16.50;99.90;;;;;;5135737;27;20368;-25
2022/10/22 07:32:57;;;;;;;;;;;16.50;99.90;;;;;;5134886;27;19923;-25
2022/10/22 07:35:22;;;;;;;;;;;16.50;99.90;;;;;;5135439;27;19912;-25
2022/10/22 07:37:48;;;;;;;;;;;16.50;99.90;;;;;;5134836;27;19919;-25
2022/10/22 07:40:13;;;;;;;;;;;16.60;99.90;;;;;;5134882;27;19956;-26
2022/10/22 07:42:39;;;;;;;;;;;16.50;99.90;;;;;;5134948;27;20353;-25
2022/10/22 07:45:04;;;;;;;;;;;16.50;99.90;;;;;;5134709;27;19911;-25
2022/10/22 07:47:30;;;;;;;;;;;16.50;99.90;;;;;;5134998;27;20002;-25
2022/10/22 07:49:55;;;;;;;;;;;16.50;99.90;;;;;;5134968;27;19916;-25
2022/10/22 07:52:21;;;;;;;;;;;16.50;99.90;;;;;;5134769;27;19907;-26
2022/10/22 07:54:46;;;;;;;;;;;16.50;99.90;;;;;;5135042;27;19965;-26
2022/10/22 07:57:12;;;;;;;;;;;16.50;99.90;;;;;;5134847;27;19907;-25
2022/10/22 07:59:37;;;;;;;;;;;16.50;99.90;;;;;;5134933;27;19994;-25
2022/10/22 08:02:03;;;;;;;;;;;16.50;99.90;;;;;;5134731;27;19930;-25
2022/10/22 08:04:28;;;;;;;;;;;16.50;99.90;;;;;;5134218;27;19907;-25
2022/10/22 08:06:54;;;;;;;;;;;16.60;99.90;;;;;;5128836;27;19915;-25
2022/10/22 08:09:19;;;;;;;;;;;16.60;99.90;;;;;;5133469;27;19976;-25
2022/10/22 08:11:45;;;;;;;;;;;16.50;99.90;;;;;;5134674;27;19915;-25
2022/10/22 08:14:11;;;;;;;;;;;16.50;99.90;;;;;;5134178;27;19916;-25
2022/10/22 08:16:36;;;;;;;;;;;16.60;99.90;;;;;;5134495;27;19908;-25
2022/10/22 08:19:02;;;;;;;;;;;16.60;99.90;;;;;;5134286;27;19914;-25
2022/10/22 08:21:27;;;;;;;;;;;16.70;99.90;;;;;;5133972;27;20412;-25
2022/10/22 08:23:53;;;;;;;;;;;16.80;99.90;;;;;;5134007;27;19911;-25
2022/10/22 08:26:18;;;;;;;;;;;16.90;99.90;;;;;;5133579;27;19951;-25
2022/10/22 08:28:44;;;;;;;;;;;16.90;99.90;;;;;;5133654;27;19912;-25
2022/10/22 08:31:09;;;;;;;;;;;17.00;99.90;;;;;;5134133;27;20293;-25
2022/10/22 08:33:35;;;;;;;;;;;17.00;99.90;;;;;;5134405;27;19944;-25
2022/10/22 08:36:01;;;;;;;;;;;17.00;99.90;;;;;;5134524;27;19911;-25
2022/10/22 08:38:26;;;;;;;;;;;17.10;99.90;;;;;;5132737;27;19911;-25
2022/10/22 08:40:55;;;;;;;;;;;17.10;99.90;;;;;;5133696;27;19994;-25
2022/10/22 08:43:32;;;;;;;;;;;17.20;99.90;;;;;;5134131;27;20010;-25
2022/10/22 08:46:03;;;;;;;;;;;17.20;99.90;;;;;;5133211;27;19915;-25
2022/10/22 08:48:41;;;;;;;;;;;17.30;99.90;;;;;;5133682;27;19915;-25
2022/10/22 08:51:10;;;;;;;;;;;17.30;99.90;;;;;;5133782;27;19922;-25
2022/10/22 08:53:40;;;;;;;;;;;17.30;99.90;;;;;;5133546;27;19919;-25
2022/10/22 08:56:06;;;;;;;;;;;17.30;99.90;;;;;;5133597;27;19998;-25
2022/10/22 08:58:37;;;;;;;;;;;17.40;99.90;;;;;;5133605;27;19998;-25
2022/10/22 09:01:13;;;;;;;;;;;17.40;99.90;;;;;;5133100;27;19919;-25
2022/10/22 09:03:47;;;;;;;;;;;17.40;99.90;;;;;;5133333;27;20432;-25
2022/10/22 09:06:15;;;;;;;;;;;17.50;99.90;;;;;;5133867;27;20382;-25
2022/10/22 09:08:41;;;;;;;;;;;17.50;99.90;;;;;;5133374;27;20471;-25
2022/10/22 09:11:07;;;;;;;;;;;17.50;99.90;;;;;;5133492;27;19957;-25
2022/10/22 09:13:32;;;;;;;;;;;17.60;99.90;;;;;;5132968;27;19954;-25
2022/10/22 09:16:01;;;;;;;;;;;17.60;99.90;;;;;;5133444;27;20288;-25
2022/10/22 09:18:36;;;;;;;;;;;17.60;99.90;;;;;;5133340;27;20009;-25
2022/10/22 09:21:09;;;;;;;;;;;17.70;99.90;;;;;;5133263;27;19918;-25
2022/10/22 09:23:55;;;;;;;;;;;17.70;99.90;;;;;;5132990;27;19951;-25
2022/10/22 09:26:21;;;;;;;;;;;17.70;99.90;;;;;;5132620;27;19914;-25
2022/10/22 09:28:50;;;;;;;;;;;17.70;99.90;;;;;;5132742;27;20384;-25
2022/10/22 09:31:15;;;;;;;;;;;17.80;99.90;;;;;;5132870;27;19918;-26
2022/10/22 09:33:43;;;;;;;;;;;17.90;99.90;;;;;;5132619;27;20002;-25
2022/10/22 09:36:12;;;;;;;;;;;17.80;99.90;;;;;;5133025;27;19911;-25
2022/10/22 09:38:39;;;;;;;;;;;17.90;99.90;;;;;;5133067;27;19912;-25
2022/10/22 09:41:05;;;;;;;;;;;17.90;99.90;;;;;;5133060;27;19939;-25
2022/10/22 09:43:31;;;;;;;;;;;17.90;99.90;;;;;;5132671;27;20423;-25
2022/10/22 09:46:00;;;;;;;;;;;17.90;99.90;;;;;;5132115;27;19947;-25
2022/10/22 09:48:29;;;;;;;;;;;18.00;99.90;;;;;;5132545;27;20414;-25
2022/10/22 09:51:01;;;;;;;;;;;18.00;99.90;;;;;;5131753;27;19907;-25
2022/10/22 09:53:30;;;;;;;;;;;18.00;99.90;;;;;;5132432;27;19970;-25
2022/10/22 09:55:57;;;;;;;;;;;18.10;99.90;;;;;;5132513;27;19915;-25
2022/10/22 09:58:23;;;;;;;;;;;18.10;99.90;;;;;;5132627;27;20347;-25
2022/10/22 10:01:06;;;;;;;;;;;18.20;99.90;;;;;;5132537;27;19950;-25
2022/10/22 10:03:34;;;;;;;;;;;18.10;99.90;;;;;;5132304;27;19911;-25
2022/10/22 10:06:01;;;;;;;;;;;18.20;99.90;;;;;;5132571;27;20372;-25
2022/10/22 10:08:27;;;;;;;;;;;18.20;99.90;;;;;;5132507;27;19979;-25
2022/10/22 10:10:58;;;;;;;;;;;18.20;99.90;;;;;;5132433;27;20451;-26
2022/10/22 10:13:27;;;;;;;;;;;18.20;99.90;;;;;;5131347;27;19922;-25
2022/10/22 10:16:00;;;;;;;;;;;18.30;99.90;;;;;;5131640;27;19915;-25
2022/10/22 10:18:42;;;;;;;;;;;18.30;99.90;;;;;;5132269;28;19911;-24
2022/10/22 10:21:26;;;;;;;;;;;18.30;99.90;;;;;;5132228;28;20340;-25
2022/10/22 10:23:56;;;;;;;;;;;18.40;99.90;;;;;;5132051;28;19953;-25
2022/10/22 10:26:40;;;;;;;;;;;18.40;99.90;;;;;;5132153;28;19907;-24
2022/10/22 10:29:06;;;;;;;;;;;18.40;99.90;;;;;;5131969;28;19971;-25
2022/10/22 10:31:50;;;;;;;;;;;18.50;99.90;;;;;;5132032;28;19912;-25
2022/10/22 10:34:28;;;;;;;;;;;18.50;99.90;;;;;;5131890;28;20388;-25
2022/10/22 10:37:03;;;;;;;;;;;18.50;99.90;;;;;;5132376;27;19908;-25
2022/10/22 10:39:36;;;;;;;;;;;18.50;99.90;;;;;;5132132;27;19912;-25
2022/10/22 10:42:11;;;;;;;;;;;18.50;99.90;;;;;;5132162;27;19908;-26
2022/10/22 10:44:40;;;;;;;;;;;18.50;99.90;;;;;;5131879;27;20283;-25
2022/10/22 10:47:05;;;;;;;;;;;18.60;99.90;;;;;;5132119;28;20483;-25
2022/10/22 10:49:35;;;;;;;;;;;18.60;99.90;;;;;;5131977;27;19923;-25
2022/10/22 10:52:03;;;;;;;;;;;18.60;99.90;;;;;;5126545;27;21149;-24
2022/10/22 10:54:43;;;;;;;;;;;18.70;99.90;;;;;;5133755;27;19922;-24
2022/10/22 10:57:09;;;;;;;;;;;18.80;99.90;;;;;;5129295;27;19916;-25
2022/10/22 10:59:41;;;;;;;;;;;18.80;99.90;;;;;;5135715;27;19960;-24
2022/10/22 11:02:25;;;;;;;;;;;18.90;99.90;;;;;;5135869;27;19915;-26
2022/10/22 11:04:59;;;;;;;;;;;18.90;99.90;;;;;;5135725;27;19947;-24
2022/10/22 11:07:27;;;;;;;;;;;18.90;99.90;;;;;;5135570;27;20364;-24
2022/10/22 11:10:01;;;;;;;;;;;18.90;99.90;;;;;;5135891;27;19911;-24
2022/10/22 11:12:32;;;;;;;;;;;19.00;99.90;;;;;;5135541;27;20375;-24
2022/10/22 11:14:57;;;;;;;;;;;19.00;99.90;;;;;;5135846;27;19915;-24
2022/10/22 11:17:23;;;;;;;;;;;19.10;99.90;;;;;;5135879;27;19907;-24
2022/10/22 11:19:58;;;;;;;;;;;19.10;99.90;;;;;;5135402;27;19907;-24
2022/10/22 11:22:38;;;;;;;;;;;19.20;99.90;;;;;;5135277;27;19914;-24
2022/10/22 11:25:22;;;;;;;;;;;19.20;99.90;;;;;;5135889;27;19912;-25
2022/10/22 11:27:53;;;;;;;;;;;19.20;99.90;;;;;;5135232;27;19911;-24
2022/10/22 11:30:20;;;;;;;;;;;19.20;99.90;;;;;;5133953;27;19915;-25
2022/10/22 11:32:52;;;;;;;;;;;19.20;99.90;;;;;;5135010;27;20379;-24
2022/10/22 11:35:20;;;;;;;;;;;19.10;99.90;;;;;;5135242;27;20419;-24
2022/10/22 11:37:46;;;;;;;;;;;19.10;99.90;;;;;;5135163;27;19999;-24
2022/10/22 11:40:18;;;;;;;;;;;19.10;99.90;;;;;;5135125;27;20355;-24
2022/10/22 11:42:46;;;;;;;;;;;19.10;99.90;;;;;;5134497;27;19951;-24
2022/10/22 11:45:12;;;;;;;;;;;19.10;99.90;;;;;;5135095;27;19911;-24
2022/10/22 11:47:51;;;;;;;;;;;19.10;99.90;;;;;;5134747;27;19914;-24
2022/10/22 11:50:36;;;;;;;;;;;19.20;99.90;;;;;;5134026;27;20333;-24
2022/10/22 11:53:16;;;;;;;;;;;19.20;99.90;;;;;;5134229;27;20011;-24
2022/10/22 11:55:50;;;;;;;;;;;19.10;99.90;;;;;;5135040;27;20379;-24
2022/10/22 11:58:24;;;;;;;;;;;19.10;99.90;;;;;;5134556;27;20265;-24
2022/10/22 12:00:50;;;;;;;;;;;19.10;99.90;;;;;;5134607;27;20283;-25
2022/10/22 12:03:17;;;;;;;;;;;19.10;99.90;;;;;;5134498;27;19911;-24
2022/10/22 12:05:43;;;;;;;;;;;19.20;99.90;;;;;;5134622;27;20363;-24
2022/10/22 12:08:09;;;;;;;;;;;19.20;99.90;;;;;;5135071;27;20380;-25
2022/10/22 12:10:49;;;;;;;;;;;19.20;99.90;;;;;;5133964;27;19914;-25
2022/10/22 12:13:20;;;;;;;;;;;19.20;99.90;;;;;;5113423;28;20011;-24
2022/10/22 12:15:47;;;;;;;;;;;19.30;99.90;;;;;;5113874;28;19915;-25
2022/10/22 12:18:13;;;;;;;;;;;19.30;99.90;;;;;;5113947;28;19965;-24
2022/10/22 12:20:39;;;;;;;;;;;19.30;99.90;;;;;;5113948;28;19916;-25
2022/10/22 12:23:05;;;;;;;;;;;19.30;99.90;;;;;;5113671;28;19912;-25
2022/10/22 12:25:31;;;;;;;;;;;19.30;99.90;;;;;;5113814;28;19907;-24
2022/10/22 12:27:58;;;;;;;;;;;19.30;99.90;;;;;;5129339;27;19975;-24
2022/10/22 12:30:25;;;;;;;;;;;19.30;99.90;;;;;;5133803;27;19915;-25
2022/10/22 12:32:55;;;;;;;;;;;19.30;99.90;;;;;;5133952;27;19918;-25
2022/10/22 12:35:24;;;;;;;;;;;19.30;99.90;;;;;;5134148;27;20261;-24
2022/10/22 12:37:51;;;;;;;;;;;19.20;99.90;;;;;;5133956;27;19998;-25
2022/10/22 12:40:19;;;;;;;;;;;19.20;99.90;;;;;;5133889;27;19911;-25
2022/10/22 12:42:49;;;;;;;;;;;19.20;99.90;;;;;;5133260;27;19916;-25
2022/10/22 12:45:14;;;;;;;;;;;19.20;99.90;;;;;;5133751;27;19943;-25
2022/10/22 12:47:44;;;;;;;;;;;19.20;99.90;;;;;;5133599;27;20431;-25
2022/10/22 12:50:14;;;;;;;;;;;19.20;99.90;;;;;;5133683;27;19914;-25
2022/10/22 12:52:40;;;;;;;;;;;19.20;99.90;;;;;;5133738;27;19908;-24
2022/10/22 12:55:09;;;;;;;;;;;19.20;99.90;;;;;;5133727;27;19911;-25
2022/10/22 12:57:34;;;;;;;;;;;19.20;99.90;;;;;;5133614;27;19915;-24
2022/10/22 13:00:00;;;;;;;;;;;19.20;99.90;;;;;;5133627;27;19907;-25
2022/10/22 13:02:27;;;;;;;;;;;19.20;99.90;;;;;;5133116;27;19959;-25
2022/10/22 13:05:37;;;;;;;;;;;19.20;99.90;;;;;;5113056;28;20366;-24
2022/10/22 13:08:10;;;;;;;;;;;19.20;99.90;;;;;;5049787;28;19913;-25
2022/10/22 13:10:36;;;;;;;;;;;19.20;99.90;;;;;;5049811;28;20413;-25
2022/10/22 13:13:02;;;;;;;;;;;19.20;99.90;;;;;;5084091;28;19951;-24
2022/10/22 13:15:34;;;;;;;;;;;19.20;99.90;;;;;;5112872;28;19908;-25
2022/10/22 13:18:17;;;;;;;;;;;19.20;99.90;;;;;;5113189;27;19947;-24
2022/10/22 13:20:53;;;;;;;;;;;19.20;99.90;;;;;;5112827;28;19919;-24
2022/10/22 13:23:21;;;;;;;;;;;19.20;99.90;;;;;;5112512;28;20473;-24
2022/10/22 13:25:57;;;;;;;;;;;19.20;99.90;;;;;;5111293;28;19961;-24
2022/10/22 13:28:23;;;;;;;;;;;19.20;99.90;;;;;;5112789;28;19918;-24
2022/10/22 13:30:56;;;;;;;;;;;19.30;99.90;;;;;;5112974;28;19942;-25
2022/10/22 13:33:28;;;;;;;;;;;19.20;99.90;;;;;;5112347;28;20365;-24
2022/10/22 13:35:54;;;;;;;;;;;19.30;99.90;;;;;;5112031;28;20375;-24
2022/10/22 13:38:21;;;;;;;;;;;19.30;99.90;;;;;;5112541;28;19998;-25
2022/10/22 13:40:47;;;;;;;;;;;19.30;99.90;;;;;;5132558;27;20119;-25
2022/10/22 13:43:12;;;;;;;;;;;19.30;99.90;;;;;;5131510;27;20408;-25
2022/10/22 13:45:38;;;;;;;;;;;19.30;99.90;;;;;;5132987;27;19913;-25
2022/10/22 13:48:04;;;;;;;;;;;19.30;99.90;;;;;;5132819;27;20380;-24
2022/10/22 13:50:30;;;;;;;;;;;19.30;99.90;;;;;;5132601;27;19908;-25
2022/10/22 13:52:56;;;;;;;;;;;19.30;99.90;;;;;;5132153;27;19912;-25
2022/10/22 13:55:27;;;;;;;;;;;19.30;99.90;;;;;;5131785;27;20397;-25
2022/10/22 13:57:59;;;;;;;;;;;19.30;99.90;;;;;;5131162;27;19952;-25
2022/10/22 14:00:24;;;;;;;;;;;19.30;99.90;;;;;;5132593;27;19912;-25
2022/10/22 14:02:52;;;;;;;;;;;19.30;99.90;;;;;;5132302;27;19931;-24
2022/10/22 14:05:17;;;;;;;;;;;19.30;99.90;;;;;;5132534;27;20131;-25
2022/10/22 14:07:43;;;;;;;;;;;19.40;99.90;;;;;;5132500;27;19915;-25
2022/10/22 14:10:19;;;;;;;;;;;19.40;99.90;;;;;;5132328;27;19911;-25
2022/10/22 14:12:44;;;;;;;;;;;19.40;99.90;;;;;;5132371;27;19976;-25
2022/10/22 14:15:11;;;;;;;;;;;19.40;99.90;;;;;;5132549;27;20003;-25
2022/10/22 14:17:37;;;;;;;;;;;19.40;99.90;;;;;;5132230;27;19911;-25
2022/10/22 14:20:03;;;;;;;;;;;19.40;99.90;;;;;;5132386;27;19914;-25
2022/10/22 14:22:29;;;;;;;;;;;19.40;99.90;;;;;;5132215;27;19907;-25